createdAt,value
2018-05-31T00:01:49.692Z,94900.61
2018-05-31T00:04:18.147Z,94902.14
2018-05-31T00:06:46.552Z,94902.02
2018-05-31T00:09:15.019Z,94900.73
2018-05-31T00:11:43.593Z,94894.11
2018-05-31T00:14:11.973Z,94891.63
2018-05-31T00:16:40.447Z,94885.67
2018-05-31T00:19:09.177Z,94888.30
2018-05-31T00:21:37.602Z,94887.56
2018-05-31T00:24:06.026Z,94888.13
2018-05-31T00:26:34.756Z,94881.48
2018-05-31T00:29:03.159Z,94877.82
2018-05-31T00:31:31.596Z,94883.30
2018-05-31T00:34:00.529Z,94888.37
2018-05-31T00:36:28.936Z,94886.12
2018-05-31T00:38:57.344Z,94883.10
2018-05-31T00:41:25.848Z,94885.97
2018-05-31T00:43:54.279Z,94887.70
2018-05-31T00:46:22.705Z,94886.39
2018-05-31T00:48:51.487Z,94886.34
2018-05-31T00:51:19.906Z,94871.70
2018-05-31T00:53:48.334Z,94895.00
2018-05-31T00:56:18.990Z,94874.92
2018-05-31T00:58:47.416Z,94890.98
2018-05-31T01:01:15.843Z,94871.92
2018-05-31T01:03:44.340Z,94888.70
2018-05-31T01:06:12.761Z,94886.59
2018-05-31T01:08:41.427Z,94892.08
2018-05-31T01:11:10.191Z,94885.17
2018-05-31T01:13:38.627Z,94885.64
2018-05-31T01:16:07.037Z,94885.73
2018-05-31T01:18:35.847Z,94877.56
2018-05-31T01:21:04.313Z,94874.20
2018-05-31T01:23:32.745Z,94873.14
2018-05-31T01:26:01.170Z,94865.52
2018-05-31T01:28:29.647Z,94866.61
2018-05-31T01:30:58.063Z,94872.31
2018-05-31T01:33:26.530Z,94872.47
2018-05-31T01:35:54.924Z,94868.41
2018-05-31T01:38:33.276Z,94867.84
2018-05-31T01:41:01.717Z,94849.68
2018-05-31T01:43:30.203Z,94867.27
2018-05-31T01:45:58.651Z,94872.19
2018-05-31T01:48:27.071Z,94868.62
2018-05-31T01:50:55.534Z,94869.41
2018-05-31T01:53:23.967Z,94874.81
2018-05-31T01:55:52.460Z,94869.26
2018-05-31T01:58:20.861Z,94853.62
2018-05-31T02:00:49.276Z,94864.86
2018-05-31T02:03:17.728Z,94866.39
2018-05-31T02:05:46.167Z,94863.51
2018-05-31T02:08:14.581Z,94866.98
2018-05-31T02:10:43.191Z,94873.16
2018-05-31T02:13:11.669Z,94875.53
2018-05-31T02:15:40.131Z,94881.08
2018-05-31T02:18:08.587Z,94883.62
2018-05-31T02:20:36.986Z,94878.89
2018-05-31T02:23:05.451Z,94880.22
2018-05-31T02:25:34.045Z,94877.03
2018-05-31T02:28:02.514Z,94881.82
2018-05-31T02:30:30.964Z,94899.63
2018-05-31T02:32:59.370Z,94886.56
2018-05-31T02:35:27.874Z,94893.53
2018-05-31T02:37:56.337Z,94899.93
2018-05-31T02:40:25.165Z,94902.61
2018-05-31T02:42:53.612Z,94896.98
2018-05-31T02:45:22.062Z,94895.69
2018-05-31T02:47:50.632Z,94903.34
2018-05-31T02:50:19.139Z,94893.91
2018-05-31T02:52:47.559Z,94904.79
2018-05-31T02:55:16.795Z,94906.16
2018-05-31T02:57:45.264Z,94901.94
2018-05-31T03:00:13.765Z,94909.04
2018-05-31T03:02:42.235Z,94872.92
2018-05-31T03:05:10.680Z,94901.36
2018-05-31T03:07:39.196Z,94905.38
2018-05-31T03:10:07.650Z,94905.10
2018-05-31T03:12:36.114Z,94913.64
2018-05-31T03:15:04.603Z,94912.67
2018-05-31T03:17:33.048Z,94913.63
2018-05-31T03:20:01.561Z,94913.28
2018-05-31T03:22:30.035Z,94919.44
2018-05-31T03:24:58.546Z,94914.48
2018-05-31T03:27:26.961Z,94918.34
2018-05-31T03:29:55.411Z,94919.95
2018-05-31T03:32:23.839Z,94921.33
2018-05-31T03:34:52.288Z,94921.47
2018-05-31T03:37:20.719Z,94922.30
2018-05-31T03:39:49.219Z,94919.39
2018-05-31T03:42:17.682Z,94920.84
2018-05-31T03:44:46.200Z,94925.43
2018-05-31T03:47:14.616Z,94931.51
2018-05-31T03:49:43.036Z,94927.86
2018-05-31T03:52:11.533Z,94931.69
2018-05-31T03:54:40.049Z,94869.82
2018-05-31T03:57:08.551Z,94932.42
2018-05-31T03:59:36.998Z,94934.64
2018-05-31T04:02:05.406Z,94932.73
2018-05-31T04:04:33.872Z,94911.35
2018-05-31T04:07:02.295Z,94930.13
2018-05-31T04:09:30.769Z,94932.88
2018-05-31T04:11:59.223Z,94934.36
2018-05-31T04:14:27.632Z,94873.25
2018-05-31T04:16:56.051Z,94891.81
2018-05-31T04:19:24.530Z,94932.72
2018-05-31T04:21:53.155Z,94932.28
2018-05-31T04:24:21.631Z,94933.88
2018-05-31T04:26:50.095Z,94932.25
2018-05-31T04:29:18.563Z,94930.38
2018-05-31T04:31:47.036Z,94920.93
2018-05-31T04:34:15.529Z,94930.13
2018-05-31T04:36:44.010Z,94929.50
2018-05-31T04:39:12.447Z,94933.22
2018-05-31T04:41:40.912Z,94935.97
2018-05-31T04:44:09.507Z,94918.95
2018-05-31T04:46:38.015Z,94934.76
2018-05-31T04:49:06.625Z,94933.31
2018-05-31T04:51:35.188Z,94933.31
2018-05-31T04:54:03.684Z,94938.67
2018-05-31T04:56:32.118Z,94943.10
2018-05-31T04:59:00.571Z,94937.64
2018-05-31T05:01:30.031Z,94922.39
2018-05-31T05:03:58.463Z,94940.31
2018-05-31T05:06:26.939Z,94938.89
2018-05-31T05:08:55.380Z,94945.32
2018-05-31T05:11:23.835Z,94932.58
2018-05-31T05:13:52.408Z,94939.80
2018-05-31T05:16:21.232Z,94944.22
2018-05-31T05:18:49.780Z,94948.91
2018-05-31T05:21:18.184Z,94938.72
2018-05-31T05:23:46.659Z,94942.16
2018-05-31T05:26:15.140Z,94950.68
2018-05-31T05:28:43.648Z,94952.73
2018-05-31T05:31:12.224Z,94951.67
2018-05-31T05:33:40.647Z,94953.45
2018-05-31T05:36:09.118Z,94945.91
2018-05-31T05:38:37.553Z,94948.44
2018-05-31T05:41:06.010Z,94949.86
2018-05-31T05:43:34.564Z,94947.64
2018-05-31T05:46:03.083Z,94944.69
2018-05-31T05:48:31.512Z,94949.73
2018-05-31T05:50:59.938Z,94952.93
2018-05-31T05:53:28.475Z,94953.33
2018-05-31T05:55:56.899Z,94945.34
2018-05-31T05:58:25.328Z,94950.47
2018-05-31T06:00:53.809Z,94942.22
2018-05-31T06:03:22.261Z,94951.11
2018-05-31T06:05:50.662Z,94951.35
2018-05-31T06:08:19.177Z,94950.97
2018-05-31T06:10:47.591Z,94961.30
2018-05-31T06:13:16.052Z,94942.50
2018-05-31T06:15:44.571Z,94943.73
2018-05-31T06:18:12.991Z,94945.91
2018-05-31T06:20:41.559Z,94947.31
2018-05-31T06:23:10.015Z,94938.87
2018-05-31T06:25:38.436Z,94948.59
2018-05-31T06:28:06.864Z,94941.72
2018-05-31T06:30:35.380Z,94938.48
2018-05-31T06:33:03.797Z,94938.38
2018-05-31T06:35:32.219Z,94936.77
2018-05-31T06:38:00.722Z,94945.46
2018-05-31T06:40:29.159Z,94933.67
2018-05-31T06:42:57.629Z,94921.52
2018-05-31T06:45:26.164Z,94936.41
2018-05-31T06:47:54.546Z,94935.24
2018-05-31T06:50:23.092Z,94933.02
2018-05-31T06:52:51.496Z,94937.27
2018-05-31T06:55:20.012Z,94934.92
2018-05-31T06:57:48.411Z,94935.30
2018-05-31T07:00:16.860Z,94937.12
2018-05-31T07:02:45.312Z,94935.58
2018-05-31T07:05:13.787Z,94938.04
2018-05-31T07:07:42.180Z,94938.70
2018-05-31T07:10:10.576Z,94940.30
2018-05-31T07:12:39.031Z,94939.36
2018-05-31T07:15:07.501Z,94945.92
2018-05-31T07:17:35.945Z,94944.12
2018-05-31T07:20:04.352Z,94935.70
2018-05-31T07:22:32.761Z,94931.87
2018-05-31T07:25:01.202Z,94930.48
2018-05-31T07:27:29.786Z,94928.31
2018-05-31T07:29:58.200Z,94924.31
2018-05-31T07:32:26.631Z,94928.64
2018-05-31T07:34:55.081Z,94928.55
2018-05-31T07:37:23.533Z,94927.92
2018-05-31T07:39:52.027Z,94933.95
2018-05-31T07:42:20.475Z,94932.87
2018-05-31T07:44:48.888Z,94932.72
2018-05-31T07:47:17.290Z,94933.19
2018-05-31T07:49:45.731Z,94927.78
2018-05-31T07:52:14.153Z,94933.16
2018-05-31T07:54:42.598Z,94913.65
2018-05-31T07:57:10.991Z,94926.88
2018-05-31T07:59:39.447Z,94916.31
2018-05-31T08:02:07.936Z,94928.79
2018-05-31T08:04:36.390Z,94927.06
2018-05-31T08:07:04.811Z,94918.10
2018-05-31T08:09:33.362Z,94922.18
2018-05-31T08:12:01.818Z,94925.63
2018-05-31T08:14:30.270Z,94924.16
2018-05-31T08:16:58.701Z,94922.71
2018-05-31T08:19:27.140Z,94928.77
2018-05-31T08:21:55.614Z,94904.73
2018-05-31T08:24:24.041Z,94912.30
2018-05-31T08:26:52.486Z,94918.79
2018-05-31T08:29:20.949Z,94913.99
2018-05-31T08:31:49.403Z,94911.66
2018-05-31T08:34:17.811Z,94913.39
2018-05-31T08:36:46.243Z,94914.34
2018-05-31T08:39:14.703Z,94912.14
2018-05-31T08:41:43.126Z,94901.02
2018-05-31T08:44:11.654Z,94909.39
2018-05-31T08:46:40.036Z,94902.69
2018-05-31T08:49:08.462Z,94899.81
2018-05-31T08:51:36.891Z,94884.60
2018-05-31T08:54:05.379Z,94877.02
2018-05-31T08:56:33.840Z,94904.74
2018-05-31T08:59:02.301Z,94898.91
2018-05-31T09:01:30.771Z,94895.77
2018-05-31T09:03:59.184Z,94894.42
2018-05-31T09:06:27.731Z,94896.69
2018-05-31T09:08:56.226Z,94896.36
2018-05-31T09:11:24.693Z,94891.80
2018-05-31T09:13:53.134Z,94896.62
2018-05-31T09:16:21.760Z,94891.22
2018-05-31T09:18:50.183Z,94896.93
2018-05-31T09:21:18.669Z,94891.94
2018-05-31T09:23:47.098Z,94895.71
2018-05-31T09:26:15.561Z,94882.16
2018-05-31T09:28:43.971Z,94893.58
2018-05-31T09:31:12.436Z,94877.25
2018-05-31T09:33:40.888Z,94874.75
2018-05-31T09:36:09.313Z,94879.80
2018-05-31T09:38:37.900Z,94881.84
2018-05-31T09:41:06.381Z,94871.61
2018-05-31T09:43:34.838Z,94872.55
2018-05-31T09:46:03.255Z,94869.51
2018-05-31T09:48:31.740Z,94873.61
2018-05-31T09:51:00.179Z,94863.63
2018-05-31T09:53:28.583Z,94869.19
2018-05-31T09:55:57.032Z,94868.59
2018-05-31T09:58:26.529Z,94865.91
2018-05-31T10:00:55.295Z,94863.16
2018-05-31T10:03:23.712Z,94859.20
2018-05-31T10:05:52.142Z,94846.88
2018-05-31T10:08:20.546Z,94853.23
2018-05-31T10:10:49.000Z,94850.70
2018-05-31T10:13:17.396Z,94846.63
2018-05-31T10:15:45.855Z,94845.11
2018-05-31T10:18:14.443Z,94852.70
2018-05-31T10:20:42.876Z,94845.79
2018-05-31T10:23:11.288Z,94839.42
2018-05-31T10:25:39.758Z,94842.91
2018-05-31T10:28:08.217Z,94829.00
2018-05-31T10:30:36.670Z,94836.38
2018-05-31T10:33:05.093Z,94832.86
2018-05-31T10:35:33.603Z,94836.92
2018-05-31T10:38:02.067Z,94833.61
2018-05-31T10:40:30.478Z,94828.55
2018-05-31T10:42:58.972Z,94829.97
2018-05-31T10:45:27.441Z,94811.13
2018-05-31T10:47:55.929Z,94820.34
2018-05-31T10:50:24.391Z,94818.96
2018-05-31T10:52:52.905Z,94822.64
2018-05-31T10:55:21.383Z,94819.45
2018-05-31T10:57:49.774Z,94819.88
2018-05-31T11:00:18.225Z,94817.73
2018-05-31T11:02:46.652Z,94812.64
2018-05-31T11:05:15.115Z,94812.05
2018-05-31T11:07:43.563Z,94811.45
2018-05-31T11:10:12.032Z,94814.45
2018-05-31T11:12:40.485Z,94822.04
2018-05-31T11:15:08.910Z,94805.84
2018-05-31T11:17:37.362Z,94800.51
2018-05-31T11:20:05.827Z,94804.09
2018-05-31T11:22:34.231Z,94803.31
2018-05-31T11:25:02.664Z,94805.34
2018-05-31T11:27:31.111Z,94795.52
2018-05-31T11:29:59.628Z,94792.63
2018-05-31T11:32:28.033Z,94790.47
2018-05-31T11:34:56.487Z,94777.41
2018-05-31T11:37:24.985Z,94784.65
2018-05-31T11:39:53.424Z,94775.12
2018-05-31T11:42:21.863Z,94776.70
2018-05-31T11:44:50.255Z,94778.72
2018-05-31T11:47:18.720Z,94779.67
2018-05-31T11:49:47.189Z,94779.80
2018-05-31T11:52:15.620Z,94769.35
2018-05-31T11:54:44.051Z,94776.39
2018-05-31T11:57:12.521Z,94767.80
2018-05-31T11:59:40.912Z,94768.27
2018-05-31T12:02:09.376Z,94773.84
2018-05-31T12:04:37.857Z,94765.06
2018-05-31T12:07:06.287Z,94758.45
2018-05-31T12:09:34.724Z,94760.10
2018-05-31T12:12:03.227Z,94754.12
2018-05-31T12:14:31.786Z,94738.43
2018-05-31T12:17:00.190Z,94754.20
2018-05-31T12:19:28.620Z,94743.58
2018-05-31T12:21:57.098Z,94740.58
2018-05-31T12:24:25.565Z,94744.16
2018-05-31T12:26:54.010Z,94738.33
2018-05-31T12:29:22.440Z,94742.63
2018-05-31T12:31:50.928Z,94742.34
2018-05-31T12:34:19.411Z,94732.59
2018-05-31T12:36:47.842Z,94738.27
2018-05-31T12:39:16.292Z,94729.20
2018-05-31T12:41:44.728Z,94725.30
2018-05-31T12:44:13.151Z,94719.67
2018-05-31T12:46:41.572Z,94716.59
2018-05-31T12:49:10.024Z,94716.81
2018-05-31T12:51:38.422Z,94710.59
2018-05-31T12:54:06.879Z,94709.94
2018-05-31T12:56:35.283Z,94707.03
2018-05-31T12:59:03.802Z,94708.77
2018-05-31T13:01:32.200Z,94702.52
2018-05-31T13:04:00.612Z,94702.98
2018-05-31T13:06:29.041Z,94701.39
2018-05-31T13:08:57.439Z,94695.41
2018-05-31T13:11:25.900Z,94693.98
2018-05-31T13:13:54.289Z,94687.60
2018-05-31T13:16:22.787Z,94685.66
2018-05-31T13:18:51.186Z,94686.19
2018-05-31T13:21:19.619Z,94678.61
2018-05-31T13:23:48.018Z,94679.34
2018-05-31T13:26:16.450Z,94682.67
2018-05-31T13:28:44.921Z,94664.46
2018-05-31T13:31:13.319Z,94678.38
2018-05-31T13:33:41.735Z,94679.30
2018-05-31T13:36:10.203Z,94675.98
2018-05-31T13:38:38.925Z,94665.80
2018-05-31T13:41:07.388Z,94663.81
2018-05-31T13:43:35.774Z,94663.33
2018-05-31T13:46:04.267Z,94656.66
2018-05-31T13:48:32.740Z,94661.00
2018-05-31T13:51:01.262Z,94654.17
2018-05-31T13:53:29.713Z,94654.56
2018-05-31T13:55:58.163Z,94655.27
2018-05-31T13:58:26.559Z,94654.67
2018-05-31T14:00:55.030Z,94657.91
2018-05-31T14:03:23.624Z,94645.84
2018-05-31T14:05:52.045Z,94649.91
2018-05-31T14:08:20.449Z,94648.25
2018-05-31T14:10:48.852Z,94648.93
2018-05-31T14:13:17.309Z,94646.83
2018-05-31T14:15:45.774Z,94647.59
2018-05-31T14:18:14.165Z,94639.89
2018-05-31T14:20:42.607Z,94620.27
2018-05-31T14:23:11.049Z,94646.11
2018-05-31T14:25:39.451Z,94632.25
2018-05-31T14:28:07.923Z,94634.06
2018-05-31T14:30:36.381Z,94627.11
2018-05-31T14:33:04.808Z,94628.41
2018-05-31T14:35:33.252Z,94612.25
2018-05-31T14:38:01.700Z,94622.21
2018-05-31T14:40:30.155Z,94621.44
2018-05-31T14:42:58.612Z,94621.90
2018-05-31T14:45:27.071Z,94625.41
2018-05-31T14:47:55.694Z,94618.87
2018-05-31T14:50:24.082Z,94613.81
2018-05-31T14:52:52.459Z,94602.11
2018-05-31T14:55:20.903Z,94603.72
2018-05-31T14:57:49.307Z,94601.47
2018-05-31T15:00:17.700Z,94613.56
2018-05-31T15:02:46.175Z,94609.81
2018-05-31T15:05:14.603Z,94603.31
2018-05-31T15:07:42.998Z,94602.97
2018-05-31T15:10:11.431Z,94606.27
2018-05-31T15:12:40.086Z,94604.86
2018-05-31T15:15:08.469Z,94606.19
2018-05-31T15:17:36.859Z,94614.00
2018-05-31T15:20:05.311Z,94611.33
2018-05-31T15:22:33.720Z,94595.40
2018-05-31T15:25:02.185Z,94604.56
2018-05-31T15:27:30.581Z,94602.80
2018-05-31T15:29:59.080Z,94601.66
2018-05-31T15:32:27.503Z,94600.45
2018-05-31T15:34:56.017Z,94592.65
2018-05-31T15:37:24.465Z,94597.45
2018-05-31T15:39:52.892Z,94604.80
2018-05-31T15:42:21.291Z,94602.99
2018-05-31T15:44:49.765Z,94604.46
2018-05-31T15:47:18.321Z,94611.31
2018-05-31T15:49:46.768Z,94604.59
2018-05-31T15:52:15.196Z,94607.09
2018-05-31T15:54:43.750Z,94599.12
2018-05-31T15:57:12.173Z,94615.45
2018-05-31T15:59:40.600Z,94615.80
2018-05-31T16:02:09.023Z,94614.59
2018-05-31T16:04:37.411Z,94600.31
2018-05-31T16:07:05.889Z,94609.52
2018-05-31T16:09:34.325Z,94617.01
2018-05-31T16:12:02.799Z,94615.56
2018-05-31T16:14:31.209Z,94619.02
2018-05-31T16:16:59.654Z,94614.61
2018-05-31T16:19:28.107Z,94620.81
2018-05-31T16:21:56.550Z,94620.87
2018-05-31T16:24:24.944Z,94620.50
2018-05-31T16:26:53.399Z,94616.20
2018-05-31T16:29:21.850Z,94619.50
2018-05-31T16:31:50.290Z,94612.56
2018-05-31T16:34:18.700Z,94622.13
2018-05-31T16:36:47.096Z,94618.33
2018-05-31T16:39:15.518Z,94627.48
2018-05-31T16:41:43.918Z,94624.20
2018-05-31T16:44:12.407Z,94623.41
2018-05-31T16:46:40.905Z,94624.78
2018-05-31T16:49:09.333Z,94626.73
2018-05-31T16:51:37.757Z,94627.63
2018-05-31T16:54:06.254Z,94616.05
2018-05-31T16:56:34.715Z,94633.59
2018-05-31T16:59:03.196Z,94601.08
2018-05-31T17:01:31.586Z,94632.48
2018-05-31T17:04:00.047Z,94632.79
2018-05-31T17:06:28.452Z,94640.86
2018-05-31T17:08:57.034Z,94635.49
2018-05-31T17:11:25.439Z,94632.67
2018-05-31T17:13:53.883Z,94638.03
2018-05-31T17:16:22.306Z,94629.38
2018-05-31T17:18:50.762Z,94626.63
2018-05-31T17:21:19.174Z,94633.19
2018-05-31T17:23:48.308Z,94631.14
2018-05-31T17:26:16.829Z,94631.45
2018-05-31T17:28:45.279Z,94636.64
2018-05-31T17:31:13.713Z,94638.84
2018-05-31T17:33:42.307Z,94643.77
2018-05-31T17:36:10.715Z,94644.64
2018-05-31T17:38:39.152Z,94662.98
2018-05-31T17:41:07.556Z,94648.02
2018-05-31T17:43:35.983Z,94663.60
2018-05-31T17:46:04.448Z,94658.59
2018-05-31T17:48:32.837Z,94664.42
2018-05-31T17:51:01.265Z,94659.37
2018-05-31T17:53:29.664Z,94670.67
2018-05-31T17:55:58.127Z,94669.39
2018-05-31T17:58:26.680Z,94662.52
2018-05-31T18:00:55.068Z,94671.11
2018-05-31T18:03:23.581Z,94666.84
2018-05-31T18:05:52.003Z,94653.70
2018-05-31T18:08:20.478Z,94679.66
2018-05-31T18:10:48.947Z,94676.44
2018-05-31T18:13:17.424Z,94685.73
2018-05-31T18:15:45.814Z,94690.58
2018-05-31T18:18:14.197Z,94690.97
2018-05-31T18:20:42.667Z,94696.97
2018-05-31T18:23:11.166Z,94698.86
2018-05-31T18:25:39.587Z,94704.23
2018-05-31T18:28:08.046Z,94704.27
2018-05-31T18:30:36.453Z,94712.52
2018-05-31T18:33:04.949Z,94703.87
2018-05-31T18:35:33.351Z,94714.06
2018-05-31T18:38:01.866Z,94709.74
2018-05-31T18:40:30.327Z,94710.86
2018-05-31T18:42:58.725Z,94716.57
2018-05-31T18:45:27.119Z,94719.83
2018-05-31T18:47:55.590Z,94718.91
2018-05-31T18:50:24.032Z,94726.47
2018-05-31T18:52:52.472Z,94737.73
2018-05-31T18:55:20.848Z,94736.38
2018-05-31T18:57:49.323Z,94738.28
2018-05-31T19:00:17.777Z,94720.20
2018-05-31T19:02:46.169Z,94741.77
2018-05-31T19:05:14.572Z,94744.09
2018-05-31T19:07:43.045Z,94705.70
2018-05-31T19:10:11.505Z,94754.49
2018-05-31T19:12:45.645Z,94757.16
2018-05-31T19:15:21.632Z,94753.95
2018-05-31T19:17:42.507Z,94761.02
2018-05-31T19:20:10.961Z,94752.58
2018-05-31T19:22:39.417Z,94714.55
2018-05-31T19:25:13.657Z,94755.25
2018-05-31T19:27:42.228Z,94757.90
2018-05-31T19:30:16.204Z,94757.86
2018-05-31T19:32:44.723Z,94761.53
2018-05-31T19:35:18.880Z,94760.52
2018-05-31T19:37:47.291Z,94765.09
2018-05-31T19:40:15.848Z,94762.84
2018-05-31T19:42:49.979Z,94762.06
2018-05-31T19:45:18.435Z,94769.41
2018-05-31T19:47:46.837Z,94763.27
2018-05-31T19:50:15.405Z,94754.83
2018-05-31T19:52:49.395Z,94756.55
2018-05-31T19:55:17.888Z,94759.83
2018-05-31T19:57:51.984Z,94762.83
2018-05-31T20:00:25.957Z,94760.03
2018-05-31T20:02:59.900Z,94763.79
2018-05-31T20:05:28.572Z,94744.48
2018-05-31T20:07:57.024Z,94747.80
2018-05-31T20:10:25.412Z,94767.48
2018-05-31T20:12:53.908Z,94774.70
2018-05-31T20:15:22.334Z,94774.55
2018-05-31T20:17:50.772Z,94777.16
2018-05-31T20:20:19.199Z,94776.75
2018-05-31T20:22:47.790Z,94782.58
2018-05-31T20:25:16.201Z,94789.66
2018-05-31T20:27:44.654Z,94783.34
2018-05-31T20:30:13.075Z,94790.88
2018-05-31T20:32:41.519Z,94798.20
2018-05-31T20:35:09.907Z,94791.52
2018-05-31T20:37:38.296Z,94800.36
2018-05-31T20:40:06.744Z,94782.33
2018-05-31T20:42:35.180Z,94786.84
2018-05-31T20:45:03.695Z,94801.89
2018-05-31T20:47:32.133Z,94798.13
2018-05-31T20:50:00.532Z,94797.04
2018-05-31T20:52:28.927Z,94782.51
2018-05-31T20:54:57.352Z,94799.53
2018-05-31T20:57:25.759Z,94798.01
2018-05-31T20:59:54.202Z,94792.74
2018-05-31T21:02:22.748Z,94793.41
2018-05-31T21:04:51.148Z,94803.27
2018-05-31T21:07:19.615Z,94805.36
2018-05-31T21:09:48.066Z,94815.36
2018-05-31T21:12:16.508Z,94812.60
2018-05-31T21:14:44.892Z,94804.48
2018-05-31T21:17:13.285Z,94811.25
2018-05-31T21:19:41.720Z,94813.21
2018-05-31T21:22:10.118Z,94814.12
2018-05-31T21:24:38.543Z,94819.64
2018-05-31T21:27:06.933Z,94805.39
2018-05-31T21:29:35.368Z,94804.81
2018-05-31T21:32:03.792Z,94803.58
2018-05-31T21:34:32.196Z,94829.16
2018-05-31T21:37:00.631Z,94830.55
2018-05-31T21:39:29.080Z,94833.11
2018-05-31T21:41:57.486Z,94831.64
2018-05-31T21:44:25.904Z,94830.36
2018-05-31T21:46:54.388Z,94827.86
2018-05-31T21:49:22.807Z,94824.80
2018-05-31T21:51:51.168Z,94829.97
2018-05-31T21:54:19.614Z,94826.56
2018-05-31T21:56:48.039Z,94827.33
2018-05-31T21:59:16.455Z,94829.96
2018-05-31T22:01:44.852Z,94824.98
2018-05-31T22:04:13.348Z,94828.20
2018-05-31T22:06:41.784Z,94800.77
2018-05-31T22:09:10.171Z,94833.88
2018-05-31T22:11:38.580Z,94832.80
2018-05-31T22:14:07.099Z,94839.94
2018-05-31T22:16:35.575Z,94836.25
2018-05-31T22:19:04.048Z,94836.91
2018-05-31T22:21:32.470Z,94836.78
2018-05-31T22:24:00.937Z,94859.06
2018-05-31T22:26:29.537Z,94829.23
2018-05-31T22:28:58.050Z,94836.93
2018-05-31T22:31:26.453Z,94833.72
2018-05-31T22:33:54.823Z,94811.37
2018-05-31T22:36:23.230Z,94838.58
2018-05-31T22:38:51.626Z,94838.36
2018-05-31T22:41:20.077Z,94832.56
2018-05-31T22:43:48.568Z,94832.44
2018-05-31T22:46:16.974Z,94825.27
2018-05-31T22:48:45.352Z,94833.44
2018-05-31T22:51:13.815Z,94838.17
2018-05-31T22:53:42.227Z,94833.94
2018-05-31T22:56:10.640Z,94825.41
2018-05-31T22:58:39.079Z,94830.53
2018-05-31T23:01:07.489Z,94828.03
2018-05-31T23:03:35.959Z,94825.66
2018-05-31T23:06:04.377Z,94825.66
2018-05-31T23:08:38.338Z,94831.97
2018-05-31T23:11:06.738Z,94826.35
2018-05-31T23:13:35.187Z,94823.84
2018-05-31T23:16:04.502Z,94825.28
2018-05-31T23:18:32.976Z,94826.09
2018-05-31T23:21:01.424Z,94821.06
2018-05-31T23:23:29.827Z,94819.73
2018-05-31T23:25:58.219Z,94825.00
2018-05-31T23:28:26.831Z,94815.67
2018-05-31T23:30:55.279Z,94813.07
2018-05-31T23:33:23.676Z,94813.70
2018-05-31T23:35:52.133Z,94815.16
2018-05-31T23:38:20.547Z,94821.06
2018-05-31T23:40:49.009Z,94813.83
2018-05-31T23:43:17.377Z,94820.67
2018-05-31T23:45:45.812Z,94820.25
2018-05-31T23:48:14.281Z,94817.23
2018-05-31T23:50:42.779Z,94824.34
2018-05-31T23:53:11.207Z,94823.95
2018-05-31T23:55:39.650Z,94823.17
2018-05-31T23:58:08.075Z,94821.84
